Aviation Digital Data Service (ADDS)

Output produced by METARs form (0337 UTC 24 February 2017)
found at http://www.aviationweather.gov/adds/metars/
 
OSDI 240300Z 00000KT CAVOK 00/M03 Q1024
OSDI 232215Z 2400/2506 VRB03KT CAVOK 
     TEMPO 2409/2418 06010KT 9999 FEW030
       
OSKL 240300Z 35004KT 4000 BR 01/M04 Q1022
OSLK 240300Z 05004KT CAVOK 09/07 Q1024
OSLK 232215Z 2400/2424 12008KT 9999 SCT030 
     TEMPO 2408/2418 22015KT 9999 FEW030
       
OSLK 240300Z 05004KT CAVOK 09/07 Q1024
OSLK 232215Z 2400/2424 12008KT 9999 SCT030 
     TEMPO 2408/2418 22015KT 9999 FEW030
       
OSDI 240300Z 00000KT CAVOK 00/M03 Q1024
OSDI 232215Z 2400/2506 VRB03KT CAVOK 
     TEMPO 2409/2418 06010KT 9999 FEW030
       
OSKL 240300Z 35004KT 4000 BR 01/M04 Q1022